METAR Data
IDs: Format: Raw Decoded Include TAF

Data at: 1817 UTC 25 Mar 2019

EGPH 251750Z 29006KT 260V330 CAVOK 10/02 Q1032
EGPH 251720Z 29007KT CAVOK 10/02 Q1032
EGPH 251650Z 29009KT 250V330 9999 FEW044 10/02 Q1032
EGPH 251620Z 28007KT 9999 FEW044 11/01 Q1032
EGPH 251550Z 29006KT 260V330 9999 FEW044 11/01 Q1032
EGPH 251520Z 29007KT 260V340 9999 FEW043 10/01 Q1032
EGPH 251450Z 31005KT 270V350 9999 FEW042 10/01 Q1032
EGPH 251420Z 31006KT 280V350 9999 SCT042 10/01 Q1032
EGPH 251350Z 31006KT 260V360 9999 FEW044 10/01 Q1032
EGPH 251250Z 29006KT 250V330 9999 FEW043 10/00 Q1032
EGPH 251220Z 30007KT 240V350 9999 FEW041 10/01 Q1032
EGPH 251150Z 28008KT 240V330 9999 FEW041 10/00 Q1033
EGPH 251120Z 26006KT 220V340 9999 FEW041 10/01 Q1033
EGPH 251050Z 26006KT 210V310 9999 FEW042 09/00 Q1033
EGPH 251020Z 26007KT 220V300 9999 FEW040 10/01 Q1033
EGPH 250950Z VRB06KT 9999 FEW040 09/00 Q1032
EGPH 250920Z 27007KT 240V310 CAVOK 09/01 Q1032
EGPH 250850Z 26008KT 230V300 CAVOK 08/01 Q1032
EGPH 250820Z 25010KT CAVOK 06/01 Q1032
EGPH 250750Z 24008KT CAVOK 05/01 Q1031
EGPH 250720Z 24007KT CAVOK 04/01 Q1031
EGPH 250650Z 24008KT 200V270 CAVOK 03/00 Q1031
EGPH 250620Z 26007KT CAVOK 03/00 Q1030
EGPH 250550Z 26010KT CAVOK 03/00 Q1029
EGPH 250520Z 25007KT 220V280 CAVOK 02/00 Q1029
EGPH 250450Z 23008KT CAVOK 01/M01 Q1029
EGPH 250020Z 27008KT CAVOK 04/M00 Q1026
EGPH 242350Z 26007KT CAVOK 04/M00 Q1026
EGPH 242320Z 24007KT CAVOK 02/M02 Q1025
EGPH 242250Z 26008KT 230V290 CAVOK 05/M01 Q1025
EGPH 242220Z 27009KT CAVOK 05/M01 Q1025
EGPH 242150Z 27009KT 240V300 CAVOK 05/M01 Q1024
EGPH 242120Z 27010KT CAVOK 05/M01 Q1024
EGPH 242050Z 26011KT 9999 FEW045 05/M00 Q1024
EGPH 242020Z 26010KT 9999 SCT045 05/00 Q1024
EGPH 241950Z 25009KT CAVOK 05/00 Q1023
EGPH 241920Z 26009KT 9999 FEW020 06/01 Q1023
EGPH 241850Z 28010KT 9999 SCT034 07/00 Q1023
EGPH 241820Z 28013G25KT 9999 FEW033 07/00 Q1022
EGPH 241750Z 28012KT 9999 FEW014 07/00 Q1022
EGPH 241720Z 29015G27KT 9999 FEW014 08/01 Q1021
EGPH 241650Z 28016KT 9999 FEW025 09/00 Q1021
EGPH 241620Z 28018G31KT 9999 FEW025 08/01 Q1021
EGPH 241550Z 27014KT 9999 -RA BKN028 09/02 Q1021
EGPH 241520Z 28011G21KT 240V310 9999 VCSH FEW021 SCT035 08/03 Q1021
EGPH 241450Z 27018G29KT 9999 SCT036 10/02 Q1020
EGPH 241420Z 27019G29KT 9999 FEW027 10/03 Q1020
EGPH 241350Z 27019G32KT 240V310 9999 FEW009 SCT025 09/04 Q1021
EGPH 241320Z 26016G27KT 9999 BKN027 10/04 Q1021
EGPH 241250Z 26015G27KT 9999 SCT021TCU 10/06 Q1021
EGPH 241220Z 26020KT 9999 7000N -RA BKN022 10/05 Q1021
EGPH 241150Z 25018KT 9999 SCT017 09/05 Q1021
EGPH 241120Z 24020KT 9999 SCT016TCU 08/05 Q1022
EGPH 241050Z 24019KT 9999 8000W -RA BKN013TCU 07/05 Q1022
EGPH 241020Z 24018KT 9999 8000W -RA BKN016TCU 07/05 Q1022
EGPH 240950Z 24017KT 9999 -RA BKN017 06/04 Q1023
EGPH 240920Z 25018KT 9999 -RA SCT017 06/04 Q1023
EGPH 240850Z 24018G30KT 9999 -RA SCT021 BKN033 07/03 Q1023
EGPH 240820Z 24015KT 9999 SCT021 06/03 Q1024
EGPH 240750Z 23014KT 9999 SCT019 06/03 Q1024
EGPH 240720Z 24015KT 9999 -RA SCT020 06/03 Q1024
EGPH 240650Z 24015KT 9999 SCT021 05/03 Q1024
EGPH 240620Z 23016KT 9999 SCT021 05/02 Q1025